createdAt,value
2022-12-06T00:01:17.754Z,6.20
2022-12-06T00:03:47.846Z,6.10
2022-12-06T00:06:18.177Z,6.20
2022-12-06T00:08:47.946Z,6.10
2022-12-06T00:11:19.583Z,6.20
2022-12-06T00:13:49.403Z,5.70
2022-12-06T00:16:18.790Z,5.30
2022-12-06T00:18:49.760Z,5.10
2022-12-06T00:21:21.064Z,5.00
2022-12-06T00:23:51.209Z,4.90
2022-12-06T00:26:21.138Z,4.70
2022-12-06T00:28:49.724Z,4.80
2022-12-06T00:31:19.565Z,5.10
2022-12-06T00:33:47.694Z,5.30
2022-12-06T00:36:18.723Z,5.50
2022-12-06T00:38:47.348Z,5.70
2022-12-06T00:41:17.550Z,5.70
2022-12-06T00:43:47.826Z,5.80
2022-12-06T00:46:17.793Z,5.80
2022-12-06T00:48:46.400Z,5.80
2022-12-06T00:51:15.533Z,5.70
2022-12-06T00:53:44.990Z,5.70
2022-12-06T00:56:13.457Z,5.40
2022-12-06T00:58:41.598Z,4.90
2022-12-06T01:01:13.678Z,4.90
2022-12-06T01:03:42.455Z,4.90
2022-12-06T01:06:12.880Z,4.90
2022-12-06T01:08:41.364Z,5.20
2022-12-06T01:11:09.894Z,5.30
2022-12-06T01:13:38.215Z,5.30
2022-12-06T01:16:08.273Z,4.90
2022-12-06T01:18:38.125Z,4.70
2022-12-06T01:21:06.952Z,4.90
2022-12-06T01:23:35.398Z,5.20
2022-12-06T01:26:03.385Z,5.30
2022-12-06T01:28:31.487Z,5.40
2022-12-06T01:30:59.479Z,5.50
2022-12-06T01:33:27.681Z,5.50
2022-12-06T01:35:56.973Z,5.60
2022-12-06T01:38:24.988Z,5.60
2022-12-06T01:40:52.942Z,5.50
2022-12-06T01:43:32.265Z,5.40
2022-12-06T01:46:03.937Z,5.40
2022-12-06T01:48:32.281Z,5.50
2022-12-06T01:51:03.021Z,5.50
2022-12-06T01:53:32.256Z,5.50
2022-12-06T01:56:01.068Z,5.50
2022-12-06T01:58:34.805Z,5.50
2022-12-06T02:01:03.215Z,5.50
2022-12-06T02:03:34.612Z,5.50
2022-12-06T02:06:05.679Z,5.50
2022-12-06T02:08:34.636Z,5.50
2022-12-06T02:11:04.541Z,5.40
2022-12-06T02:13:34.819Z,5.50
2022-12-06T02:16:23.240Z,5.50
2022-12-06T02:18:56.311Z,5.50
2022-12-06T02:21:34.925Z,5.20
2022-12-06T02:24:40.855Z,5.00
2022-12-06T02:27:27.114Z,4.80
2022-12-06T02:30:13.096Z,5.10
2022-12-06T02:32:54.924Z,5.20
2022-12-06T02:35:32.165Z,5.30
2022-12-06T02:38:10.149Z,5.00
2022-12-06T02:40:45.969Z,5.00
2022-12-06T02:43:18.610Z,5.10
2022-12-06T02:45:50.059Z,4.90
2022-12-06T02:48:21.883Z,4.60
2022-12-06T02:50:54.667Z,4.30
2022-12-06T02:53:23.593Z,4.20
2022-12-06T02:55:52.457Z,4.00
2022-12-06T02:58:20.555Z,3.90
2022-12-06T03:00:52.912Z,3.70
2022-12-06T03:04:02.993Z,3.80
2022-12-06T03:07:01.711Z,3.70
2022-12-06T03:09:53.702Z,3.70
2022-12-06T03:12:31.000Z,3.80
2022-12-06T03:15:06.894Z,3.80
2022-12-06T03:17:39.796Z,3.90
2022-12-06T03:20:13.205Z,4.00
2022-12-06T03:22:46.916Z,4.10
2022-12-06T03:25:16.238Z,3.90
2022-12-06T03:27:46.117Z,3.80
2022-12-06T03:30:16.071Z,3.80
2022-12-06T03:32:48.213Z,3.70
2022-12-06T03:35:20.308Z,3.80
2022-12-06T03:37:56.157Z,3.80
2022-12-06T03:40:27.738Z,3.70
2022-12-06T03:42:56.020Z,3.60
2022-12-06T03:45:27.992Z,3.50
2022-12-06T03:48:01.536Z,3.40
2022-12-06T03:50:33.594Z,3.50
2022-12-06T03:53:03.496Z,3.70
2022-12-06T03:55:31.602Z,3.70
2022-12-06T03:57:59.600Z,3.80
2022-12-06T04:00:27.592Z,3.90
2022-12-06T04:02:55.556Z,4.20
2022-12-06T04:05:23.588Z,4.00
2022-12-06T04:07:51.747Z,3.70
2022-12-06T04:10:21.414Z,3.70
2022-12-06T04:13:01.517Z,3.60
2022-12-06T04:15:31.429Z,3.50
2022-12-06T04:18:11.226Z,3.50
2022-12-06T04:21:02.047Z,3.60
2022-12-06T04:23:31.672Z,3.60
2022-12-06T04:26:01.204Z,3.40
2022-12-06T04:28:46.971Z,3.50
2022-12-06T04:31:32.569Z,3.40
2022-12-06T04:34:18.475Z,3.30
2022-12-06T04:37:04.391Z,3.10
2022-12-06T04:39:32.903Z,3.00
2022-12-06T04:42:20.009Z,3.00
2022-12-06T04:44:48.074Z,3.00
2022-12-06T04:47:16.498Z,3.00
2022-12-06T04:49:44.544Z,3.10
2022-12-06T04:52:12.903Z,3.10
2022-12-06T04:54:41.891Z,3.00
2022-12-06T04:57:12.892Z,3.00
2022-12-06T04:59:42.560Z,2.90
2022-12-06T05:02:13.569Z,3.00
2022-12-06T05:04:41.692Z,3.00
2022-12-06T05:07:09.928Z,3.20
2022-12-06T05:09:37.987Z,3.00
2022-12-06T05:12:06.367Z,3.00
2022-12-06T05:14:35.796Z,2.90
2022-12-06T05:17:03.996Z,2.70
2022-12-06T05:19:31.961Z,2.80
2022-12-06T05:22:00.105Z,2.80
2022-12-06T05:24:28.081Z,2.80
2022-12-06T05:26:56.067Z,3.00
2022-12-06T05:29:24.073Z,3.00
2022-12-06T05:31:53.435Z,2.90
2022-12-06T05:34:21.565Z,2.90
2022-12-06T05:36:49.586Z,2.80
2022-12-06T05:39:18.085Z,2.80
2022-12-06T05:41:46.016Z,2.80
2022-12-06T05:44:14.175Z,2.80
2022-12-06T05:46:42.114Z,3.00
2022-12-06T05:49:11.428Z,3.00
2022-12-06T05:51:40.036Z,3.00
2022-12-06T05:54:08.182Z,3.20
2022-12-06T05:56:36.130Z,3.30
2022-12-06T05:59:04.378Z,3.20
2022-12-06T06:01:32.893Z,3.20
2022-12-06T06:04:01.786Z,3.20
2022-12-06T06:06:31.108Z,3.20
2022-12-06T06:08:59.073Z,3.20
2022-12-06T06:11:27.048Z,3.20
2022-12-06T06:13:55.291Z,3.20
2022-12-06T06:16:23.371Z,3.10
2022-12-06T06:18:51.371Z,3.00
2022-12-06T06:21:19.304Z,2.90
2022-12-06T06:23:48.751Z,2.90
2022-12-06T06:26:16.669Z,3.00
2022-12-06T06:28:44.617Z,2.90
2022-12-06T06:31:12.695Z,2.90
2022-12-06T06:33:40.941Z,2.80
2022-12-06T06:36:09.631Z,2.80
2022-12-06T06:38:39.967Z,2.80
2022-12-06T06:41:09.322Z,2.80
2022-12-06T06:43:37.381Z,2.70
2022-12-06T06:46:07.821Z,2.60
2022-12-06T06:48:37.843Z,2.70
2022-12-06T06:51:07.406Z,2.60
2022-12-06T06:53:35.696Z,2.60
2022-12-06T06:56:03.760Z,2.70
2022-12-06T06:58:33.169Z,2.70
2022-12-06T07:01:03.967Z,2.70
2022-12-06T07:03:32.727Z,2.60
2022-12-06T07:06:02.393Z,2.60
2022-12-06T07:08:32.381Z,2.60
2022-12-06T07:11:00.662Z,2.50
2022-12-06T07:13:29.911Z,2.50
2022-12-06T07:15:59.940Z,2.50
2022-12-06T07:18:28.007Z,2.40
2022-12-06T07:21:07.551Z,2.50
2022-12-06T07:23:37.164Z,2.50
2022-12-06T07:26:07.262Z,2.50
2022-12-06T07:28:39.388Z,2.50
2022-12-06T07:31:13.392Z,2.60
2022-12-06T07:33:42.656Z,2.60
2022-12-06T07:36:13.632Z,2.60
2022-12-06T07:38:43.382Z,2.70
2022-12-06T07:41:30.581Z,2.70
2022-12-06T07:44:17.539Z,2.70
2022-12-06T07:46:47.920Z,2.80
2022-12-06T07:49:16.816Z,2.70
2022-12-06T07:51:44.871Z,2.60
2022-12-06T07:54:13.728Z,2.50
2022-12-06T07:56:42.191Z,2.60
2022-12-06T07:59:12.865Z,2.60
2022-12-06T08:01:41.204Z,2.60
2022-12-06T08:04:10.846Z,2.50
2022-12-06T08:06:38.886Z,2.50
2022-12-06T08:09:07.751Z,2.50
2022-12-06T08:11:36.815Z,2.60
2022-12-06T08:14:05.358Z,2.50
2022-12-06T08:16:33.401Z,2.70
2022-12-06T08:19:02.141Z,2.70
2022-12-06T08:21:31.566Z,2.70
2022-12-06T08:23:59.522Z,2.70
2022-12-06T08:26:27.698Z,2.90
2022-12-06T08:28:55.714Z,3.00
2022-12-06T08:31:24.973Z,3.00
2022-12-06T08:33:53.088Z,3.10
2022-12-06T08:36:22.854Z,3.00
2022-12-06T08:38:53.069Z,3.00
2022-12-06T08:41:39.114Z,3.10
2022-12-06T08:44:07.868Z,3.00
2022-12-06T08:46:36.351Z,3.10
2022-12-06T08:49:05.234Z,3.00
2022-12-06T08:51:35.152Z,3.00
2022-12-06T08:54:05.773Z,3.20
2022-12-06T08:56:33.781Z,3.20
2022-12-06T08:59:01.844Z,3.20
2022-12-06T09:01:37.704Z,3.30
2022-12-06T09:04:07.826Z,3.50
2022-12-06T09:06:39.960Z,3.50
2022-12-06T09:09:14.844Z,3.50
2022-12-06T09:11:43.764Z,3.40
2022-12-06T09:14:21.037Z,3.30
2022-12-06T09:16:53.975Z,3.30
2022-12-06T09:19:22.259Z,3.30
2022-12-06T09:21:59.312Z,3.40
2022-12-06T09:24:31.121Z,3.40
2022-12-06T09:26:59.186Z,3.50
2022-12-06T09:29:27.200Z,3.60
2022-12-06T09:31:57.726Z,3.40
2022-12-06T09:34:28.995Z,3.50
2022-12-06T09:37:02.361Z,3.60
2022-12-06T09:39:35.799Z,3.70
2022-12-06T09:42:29.000Z,3.70
2022-12-06T09:45:17.008Z,3.80
2022-12-06T09:48:09.024Z,3.90
2022-12-06T09:50:53.613Z,3.80
2022-12-06T09:53:34.433Z,3.90
2022-12-06T09:56:11.932Z,4.00
2022-12-06T09:59:08.397Z,4.10
2022-12-06T10:01:50.884Z,4.00
2022-12-06T10:04:44.968Z,4.10
2022-12-06T10:07:18.868Z,4.10
2022-12-06T10:09:56.768Z,4.20
2022-12-06T10:12:38.812Z,4.30
2022-12-06T10:15:20.434Z,4.40
2022-12-06T10:18:08.734Z,4.50
2022-12-06T10:20:42.501Z,4.60
2022-12-06T10:23:21.845Z,4.70
2022-12-06T10:25:58.483Z,4.80
2022-12-06T10:28:41.352Z,4.80
2022-12-06T10:31:20.087Z,4.90
2022-12-06T10:33:58.553Z,5.00
2022-12-06T10:36:42.426Z,4.90
2022-12-06T10:39:18.853Z,5.00
2022-12-06T10:41:54.098Z,5.00
2022-12-06T10:44:32.472Z,5.00
2022-12-06T10:47:04.726Z,5.10
2022-12-06T10:49:42.875Z,5.10
2022-12-06T10:52:29.110Z,5.10
2022-12-06T10:55:16.412Z,5.10
2022-12-06T10:57:51.007Z,5.20
2022-12-06T11:00:23.324Z,5.20
2022-12-06T11:03:04.864Z,5.30
2022-12-06T11:05:39.111Z,5.30
2022-12-06T11:08:12.734Z,5.30
2022-12-06T11:10:43.521Z,5.30
2022-12-06T11:13:20.108Z,5.40
2022-12-06T11:15:55.698Z,5.40
2022-12-06T11:18:26.531Z,5.50
2022-12-06T11:20:59.658Z,5.50
2022-12-06T11:23:36.842Z,5.60
2022-12-06T11:26:15.175Z,5.60
2022-12-06T11:28:45.479Z,5.60
2022-12-06T11:31:26.401Z,5.70
2022-12-06T11:33:56.755Z,5.70
2022-12-06T11:36:32.093Z,5.70
2022-12-06T11:39:00.934Z,5.80
2022-12-06T11:41:33.773Z,5.80
2022-12-06T11:44:01.853Z,5.80
2022-12-06T11:46:31.502Z,5.80
2022-12-06T11:49:15.615Z,5.90
2022-12-06T11:51:43.544Z,5.90
2022-12-06T11:54:22.427Z,5.90
2022-12-06T11:56:51.042Z,6.00
2022-12-06T11:59:25.825Z,6.00
2022-12-06T12:01:57.110Z,6.10
2022-12-06T12:04:29.131Z,6.10
2022-12-06T12:07:00.823Z,6.10
2022-12-06T12:09:32.389Z,6.10
2022-12-06T12:12:04.202Z,6.10
2022-12-06T12:14:38.190Z,6.10
2022-12-06T12:17:18.047Z,6.10
2022-12-06T12:19:50.411Z,6.10
2022-12-06T12:22:29.027Z,6.10
2022-12-06T12:27:49.301Z,6.20
2022-12-06T12:30:23.835Z,6.20
2022-12-06T12:33:11.103Z,6.30
2022-12-06T12:35:42.791Z,6.20
2022-12-06T12:38:24.690Z,6.30
2022-12-06T12:40:55.914Z,6.30
2022-12-06T12:43:25.811Z,6.30
2022-12-06T12:46:24.986Z,6.30
2022-12-06T12:48:58.665Z,6.40
2022-12-06T12:51:33.355Z,6.40
2022-12-06T12:54:03.078Z,6.50
2022-12-06T12:56:34.716Z,6.50
2022-12-06T12:59:07.407Z,6.50
2022-12-06T13:01:41.961Z,6.60
2022-12-06T13:04:21.424Z,6.60
2022-12-06T13:06:53.579Z,6.60
2022-12-06T13:09:26.267Z,6.60
2022-12-06T13:11:58.944Z,6.60
2022-12-06T13:14:28.606Z,6.60
2022-12-06T13:16:59.876Z,6.60
2022-12-06T13:19:36.527Z,6.60
2022-12-06T13:22:07.938Z,6.60
2022-12-06T13:24:38.947Z,6.60
2022-12-06T13:27:13.815Z,6.70
2022-12-06T13:29:45.136Z,6.70
2022-12-06T13:32:16.845Z,6.70
2022-12-06T13:34:51.238Z,6.70
2022-12-06T13:37:30.398Z,6.70
2022-12-06T13:39:59.634Z,6.70
2022-12-06T13:42:43.802Z,6.70
2022-12-06T13:45:45.308Z,6.70
2022-12-06T13:48:38.498Z,6.60
2022-12-06T13:51:12.302Z,6.70
2022-12-06T13:54:14.031Z,6.70
2022-12-06T13:56:42.803Z,6.70
2022-12-06T13:59:34.352Z,6.70
2022-12-06T14:02:24.189Z,6.70
2022-12-06T14:04:52.241Z,6.70
2022-12-06T14:07:33.288Z,6.60
2022-12-06T14:10:15.969Z,6.60
2022-12-06T14:12:48.464Z,6.60
2022-12-06T14:15:22.505Z,6.50
2022-12-06T14:18:03.033Z,6.50
2022-12-06T14:20:34.541Z,6.50
2022-12-06T14:23:04.038Z,6.50
2022-12-06T14:25:32.027Z,6.40
2022-12-06T14:28:05.885Z,6.40
2022-12-06T14:30:34.299Z,6.30
2022-12-06T14:33:02.641Z,6.30
2022-12-06T14:35:35.691Z,6.30
2022-12-06T14:38:22.417Z,6.30
2022-12-06T14:41:09.084Z,6.20
2022-12-06T14:43:39.712Z,6.20
2022-12-06T14:46:12.004Z,6.20
2022-12-06T14:49:15.404Z,6.10
2022-12-06T14:51:43.369Z,6.10
2022-12-06T14:54:34.447Z,6.00
2022-12-06T14:57:02.947Z,6.10
2022-12-06T15:02:25.864Z,5.90
2022-12-06T15:04:53.993Z,5.90
2022-12-06T15:07:33.980Z,5.90
2022-12-06T15:10:32.718Z,5.90
2022-12-06T15:13:10.527Z,5.90
2022-12-06T15:15:41.348Z,5.90
2022-12-06T15:18:21.044Z,5.90
2022-12-06T15:20:50.811Z,5.90
2022-12-06T15:23:38.256Z,5.80
2022-12-06T15:26:10.785Z,5.60
2022-12-06T15:28:43.273Z,5.70
2022-12-06T15:31:18.098Z,5.70
2022-12-06T15:33:49.901Z,5.70
2022-12-06T15:36:22.152Z,5.70
2022-12-06T15:38:50.239Z,5.80
2022-12-06T15:41:21.628Z,5.80
2022-12-06T15:43:50.691Z,5.70
2022-12-06T15:46:20.564Z,5.70
2022-12-06T15:48:48.762Z,5.70
2022-12-06T15:51:20.856Z,5.60
2022-12-06T15:53:52.758Z,5.60
2022-12-06T15:56:24.217Z,5.60
2022-12-06T15:58:52.521Z,5.60
2022-12-06T16:01:23.168Z,5.50
2022-12-06T16:03:52.129Z,5.50
2022-12-06T16:06:22.064Z,5.60
2022-12-06T16:08:50.223Z,5.60
2022-12-06T16:11:20.281Z,5.50
2022-12-06T16:13:50.649Z,5.60
2022-12-06T16:16:20.360Z,5.50
2022-12-06T16:18:53.530Z,5.50
2022-12-06T16:21:24.523Z,5.50
2022-12-06T16:24:12.944Z,5.40
2022-12-06T16:26:44.275Z,5.40
2022-12-06T16:29:17.735Z,5.30
2022-12-06T16:31:46.239Z,5.30
2022-12-06T16:34:14.914Z,5.30
2022-12-06T16:36:57.066Z,5.30
2022-12-06T16:39:25.541Z,5.20
2022-12-06T16:41:53.544Z,5.20
2022-12-06T16:44:23.309Z,5.20
2022-12-06T16:46:52.031Z,5.20
2022-12-06T16:49:45.243Z,5.20
2022-12-06T16:52:10.728Z,5.10
2022-12-06T16:54:41.173Z,5.10
2022-12-06T16:57:10.066Z,5.10
2022-12-06T16:59:42.236Z,5.10
2022-12-06T17:02:26.545Z,5.10
2022-12-06T17:04:55.199Z,5.10
2022-12-06T17:07:23.341Z,5.00
2022-12-06T17:09:54.203Z,5.00
2022-12-06T17:12:22.145Z,5.00
2022-12-06T17:14:51.624Z,5.00
2022-12-06T17:17:21.694Z,5.00
2022-12-06T17:19:52.490Z,4.90
2022-12-06T17:22:20.647Z,5.00
2022-12-06T17:24:48.681Z,4.90
2022-12-06T17:27:17.248Z,4.90
2022-12-06T17:29:45.793Z,4.90
2022-12-06T17:32:15.383Z,4.90
2022-12-06T17:34:43.730Z,4.90
2022-12-06T17:37:11.900Z,4.90
2022-12-06T17:39:40.503Z,4.90
2022-12-06T17:42:26.205Z,4.80
2022-12-06T17:44:54.458Z,4.80
2022-12-06T17:47:23.748Z,4.80
2022-12-06T17:49:52.753Z,4.70
2022-12-06T17:52:20.737Z,4.70
2022-12-06T17:54:48.814Z,4.70
2022-12-06T17:57:19.415Z,4.70
2022-12-06T17:59:48.790Z,4.70
2022-12-06T18:02:19.749Z,4.70
2022-12-06T18:04:49.305Z,4.70
2022-12-06T18:07:19.524Z,4.70
2022-12-06T18:09:50.599Z,4.70
2022-12-06T18:12:19.461Z,4.70
2022-12-06T18:14:47.406Z,4.70
2022-12-06T18:17:22.162Z,4.70
2022-12-06T18:19:51.538Z,4.60
2022-12-06T18:22:21.494Z,4.40
2022-12-06T18:24:49.648Z,4.50
2022-12-06T18:27:17.610Z,4.50
2022-12-06T18:29:45.747Z,4.50
2022-12-06T18:32:13.818Z,4.50
2022-12-06T18:34:41.965Z,4.50
2022-12-06T18:37:11.237Z,4.50
2022-12-06T18:39:39.459Z,4.50
2022-12-06T18:42:07.446Z,4.50
2022-12-06T18:44:38.155Z,4.60
2022-12-06T18:47:06.270Z,4.50
2022-12-06T18:49:34.224Z,4.30
2022-12-06T18:52:02.177Z,4.10
2022-12-06T18:54:31.534Z,4.10
2022-12-06T18:56:59.910Z,4.20
2022-12-06T18:59:28.947Z,4.30
2022-12-06T19:01:57.911Z,4.30
2022-12-06T19:04:25.979Z,4.30
2022-12-06T19:06:54.428Z,4.30
2022-12-06T19:09:23.478Z,4.20
2022-12-06T19:11:52.808Z,4.10
2022-12-06T19:14:21.264Z,4.00
2022-12-06T19:16:51.556Z,4.00
2022-12-06T19:19:29.576Z,4.10
2022-12-06T19:21:58.164Z,4.00
2022-12-06T19:24:28.642Z,4.10
2022-12-06T19:26:59.089Z,3.80
2022-12-06T19:29:27.948Z,3.50
2022-12-06T19:31:56.271Z,3.70
2022-12-06T19:34:25.972Z,3.70
2022-12-06T19:36:57.106Z,3.60
2022-12-06T19:39:25.656Z,3.90
2022-12-06T19:42:10.912Z,4.00
2022-12-06T19:44:40.266Z,4.00
2022-12-06T19:47:08.224Z,4.10
2022-12-06T19:49:36.310Z,4.20
2022-12-06T19:52:04.487Z,4.10
2022-12-06T19:54:34.088Z,4.20
2022-12-06T19:57:04.278Z,4.20
2022-12-06T19:59:39.250Z,4.30
2022-12-06T20:02:10.709Z,4.20
2022-12-06T20:04:40.934Z,4.20
2022-12-06T20:07:10.051Z,4.10
2022-12-06T20:09:39.325Z,4.10
2022-12-06T20:12:07.782Z,4.00
2022-12-06T20:14:38.696Z,4.00
2022-12-06T20:17:11.078Z,4.10
2022-12-06T20:19:39.700Z,4.20
2022-12-06T20:22:07.698Z,4.20
2022-12-06T20:24:35.784Z,4.20
2022-12-06T20:27:03.923Z,4.20
2022-12-06T20:29:32.696Z,4.20
2022-12-06T20:32:01.861Z,4.20
2022-12-06T20:34:34.235Z,4.20
2022-12-06T20:37:04.394Z,4.20
2022-12-06T20:39:35.323Z,4.20
2022-12-06T20:42:05.467Z,4.20
2022-12-06T20:44:34.418Z,4.20
2022-12-06T20:47:02.668Z,4.10
2022-12-06T20:49:34.237Z,4.10
2022-12-06T20:52:05.041Z,3.80
2022-12-06T20:54:33.921Z,3.80
2022-12-06T20:57:06.446Z,3.70
2022-12-06T20:59:36.904Z,3.90
2022-12-06T21:02:05.254Z,3.90
2022-12-06T21:04:34.603Z,3.90
2022-12-06T21:07:02.557Z,3.90
2022-12-06T21:09:30.640Z,3.70
2022-12-06T21:11:58.616Z,3.50
2022-12-06T21:14:26.669Z,3.40
2022-12-06T21:16:54.653Z,3.40
2022-12-06T21:19:25.288Z,3.30
2022-12-06T21:21:57.891Z,3.10
2022-12-06T21:24:25.928Z,3.10
2022-12-06T21:26:53.910Z,3.00
2022-12-06T21:29:30.059Z,3.10
2022-12-06T21:32:01.836Z,3.10
2022-12-06T21:34:30.205Z,3.20
2022-12-06T21:36:59.713Z,3.20
2022-12-06T21:39:27.749Z,3.20
2022-12-06T21:42:14.155Z,3.20
2022-12-06T21:44:42.210Z,3.10
2022-12-06T21:47:11.369Z,3.30
2022-12-06T21:49:39.355Z,3.40
2022-12-06T21:52:09.517Z,3.30
2022-12-06T21:54:37.563Z,3.30
2022-12-06T21:57:05.495Z,3.40
2022-12-06T21:59:33.520Z,3.60
2022-12-06T22:02:01.481Z,3.70
2022-12-06T22:04:31.617Z,3.60
2022-12-06T22:06:59.585Z,3.10
2022-12-06T22:09:29.011Z,2.80
2022-12-06T22:11:57.063Z,2.80
2022-12-06T22:14:25.094Z,2.60
2022-12-06T22:16:53.098Z,2.50
2022-12-06T22:19:21.154Z,2.60
2022-12-06T22:21:49.107Z,2.70
2022-12-06T22:24:17.235Z,2.60
2022-12-06T22:26:46.631Z,2.60
2022-12-06T22:29:14.788Z,2.40
2022-12-06T22:31:45.099Z,2.60
2022-12-06T22:34:13.189Z,2.70
2022-12-06T22:36:41.340Z,2.70
2022-12-06T22:39:11.669Z,2.90
2022-12-06T22:41:39.836Z,2.90
2022-12-06T22:44:09.292Z,2.90
2022-12-06T22:46:37.644Z,3.00
2022-12-06T22:49:07.348Z,2.90
2022-12-06T22:51:37.009Z,3.10
2022-12-06T22:54:09.102Z,3.10
2022-12-06T22:56:39.295Z,2.90
2022-12-06T22:59:10.782Z,3.10
2022-12-06T23:01:38.889Z,3.30
2022-12-06T23:04:08.116Z,3.40
2022-12-06T23:06:37.075Z,3.20
2022-12-06T23:09:05.875Z,3.20
2022-12-06T23:11:35.933Z,3.20
2022-12-06T23:14:04.417Z,3.30
2022-12-06T23:16:34.119Z,3.50
2022-12-06T23:19:03.993Z,3.50
2022-12-06T23:21:33.559Z,3.50
2022-12-06T23:24:05.152Z,3.60
2022-12-06T23:26:35.605Z,3.60
2022-12-06T23:29:03.702Z,3.50
2022-12-06T23:31:36.285Z,3.50
2022-12-06T23:34:07.210Z,3.60
2022-12-06T23:36:36.443Z,3.60
2022-12-06T23:39:05.671Z,3.50
2022-12-06T23:41:36.590Z,3.50
2022-12-06T23:44:05.812Z,3.40
2022-12-06T23:46:37.351Z,3.30
2022-12-06T23:49:06.603Z,3.40
2022-12-06T23:51:36.366Z,3.20
2022-12-06T23:54:07.321Z,3.30
2022-12-06T23:56:37.438Z,3.40
2022-12-06T23:59:07.933Z,3.40
